METAR stanice u blizini

 

LYNI - Nis, Yugoslavia
Distance from station: JZ 40km
Ažurirano: 17/01/2020 15:30
Mist, Delimično oblačno
Mist, Delimično oblačno
 Pravac vetra J
Vetar: J 11 km/h
Temperatura: 0°C
Osećaj hladnoće: -4°C
Tačka rose: -1°C
Vlažnost: 93%
Pritisak: 1028 hPa
Pregled: Mist
Oblaci: Delimično oblačno
Vidljivost: 4 km
2020/01/17 14:30 LYNI 171430Z 19006KT 160V220 4000 BR NSC M00/M01 Q1028 TEMPO 2500
LYKV - Kraljevo, Yugoslavia
Distance from station: ZSZ 136km
Ažurirano: 17/01/2020 15:30
Freezing fog, Oblačno
Freezing fog, Oblačno
 Pravac vetra varies
Vetar: varies 6 km/h
Temperatura: -1°C
Tačka rose: -1°C
Vlažnost: 100%
Pritisak: 1027 hPa
Pregled: Freezing Fog
Oblaci: Oblačno
Vidljivost: 1 km
Cloud details: Oblačno 61 m
2020/01/17 14:30 LYKV 171430Z VRB03KT 0500 FZFG VV002 M01/M01 Q1027 BECMG 0200
LBSF - Sofia (observato, Bulgaria
Distance from station: JI 138km
Ažurirano: 17/01/2020 16:00
Mist, Oblačno
Mist, Oblačno
 Pravac vetra ISI
Vetar: ISI 7 km/h
Temperatura: 0°C
Osećaj hladnoće: -3°C
Tačka rose: 0°C
Vlažnost: 100%
Pritisak: 1027 hPa
Pregled: Mist
Oblaci: Oblačno
Vidljivost: 1 km
Cloud details: Oblačno 61 m
2020/01/17 15:00 LBSF 171500Z 07004KT 040V120 1300 R27/P2000N BR OVC002 M00/M00 Q1027 R99/19//95 TEMPO 0800 FZFG
 
BKPR - Prishtina, Yugoslavia
Distance from station: JZ 147km
Ažurirano: 17/01/2020 16:00
Freezing fog, Oblačno
Freezing fog, Oblačno
 Pravac vetra varies
Vetar: varies 6 km/h
Temperatura: 0°C
Tačka rose: -1°C
Vlažnost: 93%
Pritisak: 1025 hPa
Pregled: Freezing Fog
Oblaci: Oblačno
Vidljivost: 0 km
Cloud details: Oblačno 91 m
2020/01/17 15:00 BKPR 171500Z VRB03KT 0200 R17/0250V0400 FZFG OVC003 M00/M01 Q1025 TEMPO 0400 RMK 17190095
LRCV - Craiova, Romania
Distance from station: SI 154km
Ažurirano: 17/01/2020 15:30
Mist, Oblačno
Mist, Oblačno
 Pravac vetra I
Vetar: I 6 km/h
Temperatura: -1°C
Tačka rose: -1°C
Vlažnost: 100%
Pritisak: 1031 hPa
Pregled: Mist
Oblaci: Oblačno
Vidljivost: 2 km
Cloud details: Oblačno 61 m
2020/01/17 14:30 LRCV 171430Z 10003KT 2000 BR OVC002 M01/M01 Q1031 R27/19//95
LWSK - Skopje/Petrovac, Macedonia
Distance from station: JJZ 185km
Ažurirano: 17/01/2020 16:00
Vedro
Vedro
 Pravac vetra J
Vetar: J 6 km/h
Temperatura: 6°C
Tačka rose: 1°C
Vlažnost: 71%
Pritisak: 1026 hPa
Pregled: Vedro
Vidljivost: greater than 10 km
2020/01/17 15:00 LWSK 171500Z 19003KT CAVOK 06/01 Q1026 NOSIG
 
LYVR - Vrsac, Yugoslavia
Distance from station: SSZ 189km
Ažurirano: 17/01/2020 15:30
Freezing fog, Oblačno
Freezing fog, Oblačno
 Pravac vetra SSI
Vetar: SSI 7 km/h
Temperatura: 0°C
Osećaj hladnoće: -3°C
Tačka rose: 0°C
Vlažnost: 100%
Pritisak: 1028 hPa
Pregled: Freezing Fog
Oblaci: Oblačno
Vidljivost: 0 km
Cloud details: Oblačno 61 m
2020/01/17 14:30 LYVR 171430Z 03004KT 340V140 0300 R19/0350N R01/0350N FZFG VV002 M00/M00 Q1028 NOSIG
LYUZ - Uzice-Ponikve, Yugoslavia
Distance from station: Z 207km
Ažurirano: 17/01/2020 15:30
Vedro
Vedro
 Pravac vetra I
Vetar: I 15 km/h
Temperatura: 2°C
Osećaj hladnoće: -2°C
Tačka rose: -3°C
Vlažnost: 70%
Pritisak: 1023 hPa
Pregled: Vedro
Vidljivost: greater than 10 km
2020/01/17 14:30 LYUZ 171430Z 10008KT CAVOK 02/M03 Q1023
LYBE - Belgrade/Surcin, Yugoslavia
Distance from station: SZ 209km
Ažurirano: 17/01/2020 15:30
Mist, Delimično oblačno
Mist, Delimično oblačno
 Pravac vetra ISI
Vetar: ISI 17 km/h
Temperatura: 2°C
Osećaj hladnoće: -2°C
Tačka rose: 1°C
Vlažnost: 93%
Pritisak: 1027 hPa
Pregled: Mist
Oblaci: Delimično oblačno
Vidljivost: 2 km
2020/01/17 14:30 LYBE 171430Z 06009KT 2000 BR NSC 02/01 Q1027 BECMG 1200
 
LYBT - Batajnica, Yugoslavia
Distance from station: SZ 219km
Ažurirano: 17/01/2020 15:30
Mist, Delimično oblačno
Mist, Delimično oblačno
 Pravac vetra ISI
Vetar: ISI 15 km/h
Temperatura: 1°C
Osećaj hladnoće: -3°C
Tačka rose: 1°C
Vlažnost: 100%
Pritisak: 1027 hPa
Pregled: Mist
Oblaci: Delimično oblačno
Vidljivost: 2 km
Cloud details: Delimično oblačno 152 m
2020/01/17 14:30 LYBT 171430Z 06008KT 2000 BR SCT005 01/01 Q1027 TEMPO 1200
LRTR - Timisoara/Giarma, Romania
Distance from station: SSZ 260km
Ažurirano: 17/01/2020 15:30
Freezing fog, Oblačno
Freezing fog, Oblačno
 Pravac vetra ZSZ
Vetar: ZSZ 6 km/h
Temperatura: -1°C
Tačka rose: -1°C
Vlažnost: 100%
Pritisak: 1028 hPa
Pregled: Freezing Fog
Oblaci: Oblačno
Vidljivost: 0 km
Cloud details: Oblačno 30 m
2020/01/17 14:30 LRTR 171430Z 30003KT 270V330 0100 R11/0225N R29/0275N FZFG VV001 M01/M01 Q1028 R11/29//95
LBPD - Plovdiv, Bulgaria
Distance from station: JI 263km
Ažurirano: 17/01/2020 16:00
Oblačno
Oblačno
 Pravac vetra SZ
Vetar: SZ 11 km/h
Temperatura: 3°C
Osećaj hladnoće: 0°C
Tačka rose: 0°C
Vlažnost: 81%
Pritisak: 1030 hPa
Oblaci: Oblačno
Vidljivost: 8 km
Cloud details: Few Clouds 579 m
Pretežno oblačno 701 m
Oblačno 823 m
2020/01/17 15:00 LBPD 171500Z AUTO 32006KT 8000 FEW019 BKN023 OVC027 03/M00 Q1030 NOSIG
 
LYPG - Podgorica(Titogr, Yugoslavia
Distance from station: ZJZ 278km
Ažurirano: 17/01/2020 15:30
Vedro
Vedro
 Pravac vetra JZ
Vetar: JZ 6 km/h
Temperatura: 13°C
Tačka rose: -3°C
Vlažnost: 33%
Pritisak: 1023 hPa
Pregled: Vedro
Vidljivost: greater than 10 km
2020/01/17 14:30 LYPG 171430Z 23003KT 190V330 CAVOK 13/M03 Q1023 NOSIG
LBGO - Gorna Orechovist, Bulgaria
Distance from station: I 285km
Ažurirano: 17/01/2020 16:00
Oblačno
Oblačno
 Pravac vetra calm
Vetar: Tišina
Temperatura: -1°C
Tačka rose: -1°C
Vlažnost: 100%
Pritisak: 1032 hPa
Oblaci: Oblačno
Vidljivost: 7 km
Cloud details: Oblačno 305 m
2020/01/17 15:00 LBGO 171500Z AUTO 00000KT 7000 OVC010 M01/M01 Q1032 NOSIG
LRSB - Sibiu/Turnisor, Romania
Distance from station: SSI 286km
Ažurirano: 17/01/2020 15:30
Patches of fog, Mist, Delimično oblačno
Patches of fog, Mist, Delimično oblačno
 Pravac vetra SSZ
Vetar: SSZ 4 km/h
Temperatura: -4°C
Tačka rose: -4°C
Vlažnost: 100%
Pritisak: 1028 hPa
Pregled: Patches of fog, Mist
Oblaci: Delimično oblačno
Vidljivost: 2 km
2020/01/17 14:30 LRSB 171430Z 33002KT 2000 1000NE R27/P2000 BCFG BR NSC M04/M04 Q1028 R27/19//95 NOSIG
 
LWOH - Ohrid, Macedonia
Distance from station: JJZ 292km
Ažurirano: 17/01/2020 16:00
Vedro
Vedro
 Pravac vetra JJZ
Vetar: JJZ 2 km/h
Temperatura: 5°C
Tačka rose: -1°C
Vlažnost: 66%
Pritisak: 1024 hPa
Pregled: Vedro
Vidljivost: greater than 10 km
2020/01/17 15:00 LWOH 171500Z 21001KT CAVOK 05/M01 Q1024
LQTZ - Tuzla, Yugoslavia
Distance from station: ZSZ 298km
Ažurirano: 17/01/2020 15:30
Freezing fog, Oblačno
Freezing fog, Oblačno
 Pravac vetra varies
Vetar: varies 4 km/h
Temperatura: -1°C
Tačka rose: -1°C
Vlažnost: 100%
Pritisak: 1025 hPa
Pregled: Freezing Fog
Oblaci: Oblačno
Vidljivost: 0 km
Cloud details: Oblačno 30 m
2020/01/17 14:30 LQTZ 171430Z VRB02KT 0200 R09/0350N FZFG OVC001 M01/M01 Q1025
LRAR - Arad, Romania
Distance from station: SSZ 301km
Ažurirano: 17/01/2020 15:30

 Pravac vetra SI
Vetar: SI 9 km/h
Vidljivost: 1 km
2020/01/17 14:30 LRAR 171430Z 05005KT 010V090 0700 1200 R27/1400D FZFG OVC001 M02/M02 Q1028 R09/29//95
 
LYTV - Tivat, Yugoslavia
Distance from station: ZJZ 315km
Ažurirano: 17/01/2020 15:30
Vedro
Vedro
 Pravac vetra JJZ
Vetar: JJZ 6 km/h
Temperatura: 14°C
Tačka rose: 5°C
Vlažnost: 55%
Pritisak: 1023 hPa
Pregled: Vedro
Vidljivost: greater than 10 km
2020/01/17 14:30 LYTV 171430Z 21003KT 170V260 CAVOK 14/05 Q1023 NOSIG
LATI - Tirana, Albania
Distance from station: JZ 316km
Ažurirano: 17/01/2020 15:50
Vedro
Vedro
 Pravac vetra SSZ
Vetar: SSZ 9 km/h
Temperatura: 13°C
Tačka rose: 2°C
Vlažnost: 47%
Pritisak: 1023 hPa
Pregled: Vedro
Vidljivost: greater than 10 km
2020/01/17 14:50 LATI 171450Z 34005KT CAVOK 13/02 Q1023 NOSIG
LQBK - Banja Luka, Yugoslavia
Distance from station: SZ 426km
Ažurirano: 17/01/2020 15:30
Mist, Oblačno
Mist, Oblačno
 Pravac vetra varies
Vetar: varies 2 km/h
Temperatura: -1°C
Tačka rose: -1°C
Vlažnost: 100%
Pritisak: 1027 hPa
Pregled: Mist
Oblaci: Oblačno
Vidljivost: 2 km
Cloud details: Oblačno 91 m
2020/01/17 14:30 LQBK 171430Z VRB01KT 1800 BR OVC003 M01/M01 Q1027 NOSIG
 
LDOS - Osijek, Croatia
Distance from station: SSZ 360km
Ažurirano: 17/01/2020 16:00
Freezing fog, Oblačno
Freezing fog, Oblačno
 Pravac vetra I
Vetar: I 6 km/h
Temperatura: -2°C
Tačka rose: -2°C
Vlažnost: 100%
Pritisak: 1028 hPa
Pregled: Freezing Fog
Oblaci: Oblačno
Vidljivost: 0 km
Cloud details: Oblačno 61 m
2020/01/17 15:00 LDOS 171500Z 08003KT 040V100 0300 FZFG VV002 M02/M02 Q1028 R11/19//94
LDDU - Dubrovnik-Cilipi, Croatia
Distance from station: JZ 352km
Ažurirano: 17/01/2020 16:00
Vedro
Vedro
 Pravac vetra ZSZ
Vetar: ZSZ 13 km/h
Temperatura: 12°C
Tačka rose: 4°C
Vlažnost: 58%
Pritisak: 1023 hPa
Pregled: Vedro
Vidljivost: greater than 10 km
2020/01/17 15:00 LDDU 171500Z 29007KT CAVOK 12/04 Q1023 NOSIG
LQMO - Mostar Airport, Bosnia-Herzegovina
Distance from station: Z 359km
Ažurirano: 17/01/2020 15:00
Vedro
Vedro
 Pravac vetra varies
Vetar: varies 4 km/h
Temperatura: 15°C
Tačka rose: -3°C
Vlažnost: 29%
Pritisak: 1022 hPa
Pregled: Vedro
Vidljivost: greater than 10 km
2020/01/17 14:00 LQMO 171400Z VRB02KT CAVOK 15/M03 Q1022
 
LQSA - Sarajevo/Butmir, Yugoslavia
Distance from station: Z 311km
Ažurirano: 17/01/2020 15:30
Freezing fog, Pretežno oblačno
Freezing fog, Pretežno oblačno
 Pravac vetra calm
Vetar: Tišina
Temperatura: -3°C
Tačka rose: -3°C
Vlažnost: 100%
Pritisak: 1025 hPa
Pregled: Freezing Fog
Oblaci: Pretežno oblačno
Vidljivost: 1 km
Cloud details: Pretežno oblačno 91 m
2020/01/17 14:30 LQSA 171430Z 00000KT 0800 R11/900N FZFG BKN003 M03/M03 Q1025 BECMG 0400 BKN002
LDSP - Split/Kastel Sta, Croatia
Distance from station: Z 468km
Ažurirano: 17/01/2020 16:00
Vedro
Vedro
 Pravac vetra varies
Vetar: varies 2 km/h
Temperatura: 12°C
Tačka rose: 5°C
Vlažnost: 63%
Pritisak: 1023 hPa
Pregled: Vedro
Vidljivost: greater than 10 km
2020/01/17 15:00 LDSP 171500Z VRB01KT CAVOK 12/05 Q1023 NOSIG
LDZD - Zadar/Zemunik, Croatia
Distance from station: ZSZ 567km
Ažurirano: 17/01/2020 16:00
Few Clouds
Few Clouds
 Pravac vetra ZSZ
Vetar: ZSZ 13 km/h
Temperatura: 11°C
Tačka rose: 7°C
Vlažnost: 77%
Pritisak: 1024 hPa
Oblaci: Few Clouds
Vidljivost: 10 km
Cloud details: Few Clouds 914 m
2020/01/17 15:00 LDZD 171500Z 29007KT 9999 FEW030 11/07 Q1024 NOSIG
 
LDZA - Zagreb/Pleso, Croatia
Distance from station: SZ 555km
Ažurirano: 17/01/2020 16:00
Mist, Oblačno
Mist, Oblačno
 Pravac vetra JI
Vetar: JI 6 km/h
Temperatura: 0°C
Tačka rose: 0°C
Vlažnost: 100%
Pritisak: 1026 hPa
Pregled: Mist
Oblaci: Oblačno
Vidljivost: 4 km
Cloud details: Oblačno 122 m
2020/01/17 15:00 LDZA 171500Z 13003KT 090V210 4000 BR OVC004 00/M00 Q1026 NOSIG
LJCE - Cerklje, Slovenia
Distance from station: SZ 680km
Ažurirano: 17/01/2020 15:30
Mist, Oblačno
Mist, Oblačno
 Pravac vetra I
Vetar: I 15 km/h
Temperatura: 1°C
Osećaj hladnoće: -3°C
Tačka rose: 0°C
Vlažnost: 93%
Pritisak: 1026 hPa
Pregled: Mist
Oblaci: Oblačno
Vidljivost: 5 km
Cloud details: Oblačno 213 m
2020/01/17 14:30 LJCE 171430Z 10008KT 5000 BR OVC007 01/00 Q1026
LJMB - Maribor, Slovenia
Distance from station: SZ 616km
Ažurirano: 17/01/2020 15:30
Mist, Oblačno
Mist, Oblačno
 Pravac vetra I
Vetar: I 9 km/h
Temperatura: 1°C
Osećaj hladnoće: -2°C
Tačka rose: 0°C
Vlažnost: 93%
Pritisak: 1025 hPa
Pregled: Mist
Oblaci: Oblačno
Vidljivost: 5 km
Cloud details: Oblačno 305 m
2020/01/17 14:30 LJMB 171430Z 10005KT 5000 BR OVC010 01/00 Q1025
 
LJLJ - Ljubljana/Brnik, Slovenia
Distance from station: SZ 671km
Ažurirano: 17/01/2020 15:30
Delimično oblačno
Delimično oblačno
 Pravac vetra JJI
Vetar: JJI 6 km/h
Temperatura: 4°C
Tačka rose: 1°C
Vlažnost: 81%
Pritisak: 1023 hPa
Oblaci: Delimično oblačno
Vidljivost: 10 km
Cloud details: Few Clouds 1219 m
Delimično oblačno 7620 m
2020/01/17 14:30 LJLJ 171430Z 15003KT 130V210 9999 FEW040 SCT250 04/01 Q1023 NOSIG
LDRI - Rijeka, Croatia
Distance from station: SZ 650km
Ažurirano: 17/01/2020 16:00
Few Clouds
Few Clouds
 Pravac vetra ZSZ
Vetar: ZSZ 6 km/h
Temperatura: 12°C
Tačka rose: 3°C
Vlažnost: 54%
Pritisak: 1023 hPa
Oblaci: Few Clouds
Vidljivost: 10 km
Cloud details: Few Clouds 1433 m
2020/01/17 15:00 LDRI 171500Z 30003KT 9999 FEW047 12/03 Q1023
LDPL - Pula, Croatia
Distance from station: ZSZ 686km
Ažurirano: 17/01/2020 16:00
Vedro
Vedro
 Pravac vetra ZJZ
Vetar: ZJZ 6 km/h
Temperatura: 9°C
Tačka rose: 5°C
Vlažnost: 76%
Pritisak: 1023 hPa
Pregled: Vedro
Vidljivost: greater than 10 km
2020/01/17 15:00 LDPL 171500Z 24003KT CAVOK 09/05 Q1023 NOSIG
 
LJPZ - Portorož, Slovenia
Distance from station: ZSZ 720km
Ažurirano: 17/01/2020 15:30
Vedro
Vedro
 Pravac vetra JJZ
Vetar: JJZ 6 km/h
Temperatura: 12°C
Tačka rose: 8°C
Vlažnost: 77%
Pritisak: 1023 hPa
Pregled: Vedro
Vidljivost: greater than 10 km
2020/01/17 14:30 LJPZ 171430Z 21003KT CAVOK 12/08 Q1023